Time;durP1;ratioP1;P1;durP2;ratioP2;P2;SDS_P1;SDS_P2;PMS_P1;PMS_P2;Temp;Humidity;BMP_temperature;BMP_pressure;BME280_temperature;BME280_humidity;BME280_pressure;Samples;Min_cycle;Max_cycle;Signal;HPM_P1;HPM_P2
2023/04/23 00:00:43;;;;;;;2.25;1.45;;;18.70;77.10;;;;;;5024636;28;47522;-72
2023/04/23 00:03:13;;;;;;;2.35;1.83;;;18.70;77.10;;;;;;5025225;28;45308;-71
2023/04/23 00:05:41;;;;;;;2.10;1.60;;;18.60;77.00;;;;;;5025265;28;45216;-71
2023/04/23 00:08:10;;;;;;;2.25;1.90;;;18.60;77.00;;;;;;5025229;28;45632;-72
2023/04/23 00:10:37;;;;;;;3.28;1.77;;;18.60;77.00;;;;;;5024852;28;45496;-72
2023/04/23 00:13:06;;;;;;;1.70;1.52;;;18.60;76.80;;;;;;5024921;28;45457;-72
2023/04/23 00:15:33;;;;;;;2.13;1.63;;;18.60;76.70;;;;;;5025347;28;45196;-72
2023/04/23 00:18:00;;;;;;;2.33;1.88;;;18.60;76.70;;;;;;5024933;28;45540;-72
2023/04/23 00:20:27;;;;;;;2.40;1.83;;;18.60;76.60;;;;;;5024482;28;46569;-72
2023/04/23 00:22:54;;;;;;;2.55;1.80;;;18.60;76.40;;;;;;5024532;28;45627;-72
2023/04/23 00:25:21;;;;;;;2.10;1.70;;;18.60;76.40;;;;;;5024932;28;45132;-72
2023/04/23 00:27:47;;;;;;;3.10;2.00;;;18.60;76.30;;;;;;5024632;28;45063;-71
2023/04/23 00:30:17;;;;;;;3.03;1.90;;;18.60;76.30;;;;;;5024655;28;46287;-72
2023/04/23 00:32:44;;;;;;;2.40;1.75;;;18.60;76.40;;;;;;5024905;28;45427;-71
2023/04/23 00:35:11;;;;;;;1.95;1.60;;;18.60;76.30;;;;;;5024716;28;45137;-72
2023/04/23 00:37:38;;;;;;;2.50;1.92;;;18.60;76.30;;;;;;5024703;28;45232;-72
2023/04/23 00:40:06;;;;;;;2.03;1.38;;;18.70;76.20;;;;;;5024270;28;46572;-72
2023/04/23 00:42:33;;;;;;;2.08;1.70;;;18.70;76.10;;;;;;5027180;28;45328;-71
2023/04/23 00:45:01;;;;;;;2.53;1.40;;;18.70;76.00;;;;;;5024550;28;45157;-72
2023/04/23 00:47:29;;;;;;;1.98;1.77;;;18.70;76.00;;;;;;5024869;28;45100;-72
2023/04/23 00:49:56;;;;;;;2.13;1.80;;;18.70;76.10;;;;;;5023820;28;45433;-72
2023/04/23 00:52:23;;;;;;;2.00;1.55;;;18.70;75.90;;;;;;5024380;28;45255;-72
2023/04/23 00:54:50;;;;;;;1.90;1.65;;;18.70;75.90;;;;;;5024715;28;45369;-72
2023/04/23 00:57:17;;;;;;;2.08;1.63;;;18.70;75.80;;;;;;5024347;28;45415;-72
2023/04/23 00:59:44;;;;;;;1.98;1.73;;;18.70;75.80;;;;;;5024315;28;46664;-72
2023/04/23 01:02:11;;;;;;;2.25;1.75;;;18.70;75.80;;;;;;5024336;28;45199;-72
2023/04/23 01:04:43;;;;;;;2.25;1.75;;;18.70;75.60;;;;;;5024855;28;45238;-72
2023/04/23 01:07:12;;;;;;;2.78;2.05;;;18.70;75.70;;;;;;5024313;28;45111;-72
2023/04/23 01:09:40;;;;;;;2.22;1.67;;;18.70;75.60;;;;;;5024133;28;45499;-72
2023/04/23 01:12:07;;;;;;;2.15;1.73;;;18.70;75.60;;;;;;5023568;28;45078;-72
2023/04/23 01:14:34;;;;;;;2.30;1.88;;;18.70;75.40;;;;;;5024215;28;45213;-72
2023/04/23 01:17:01;;;;;;;2.17;1.67;;;18.70;75.40;;;;;;5024398;28;45419;-72
2023/04/23 01:19:28;;;;;;;2.38;1.98;;;18.70;75.40;;;;;;5023825;28;45361;-72
2023/04/23 01:21:59;;;;;;;3.00;1.52;;;18.70;75.40;;;;;;5024084;28;45769;-72
2023/04/23 01:24:28;;;;;;;2.47;1.70;;;18.70;75.50;;;;;;5024309;28;45229;-72
2023/04/23 01:26:57;;;;;;;1.30;1.20;;;18.70;75.40;;;;;;5023976;28;45255;-72
2023/04/23 01:29:24;;;;;;;2.28;1.70;;;18.70;75.40;;;;;;5023722;28;46491;-72
2023/04/23 01:31:52;;;;;;;2.20;1.33;;;18.70;75.40;;;;;;5025648;28;45245;-70
2023/04/23 01:34:21;;;;;;;2.25;1.60;;;18.70;75.40;;;;;;5025384;28;45308;-72
2023/04/23 01:36:48;;;;;;;2.60;1.40;;;18.70;75.40;;;;;;5023956;28;45117;-72
2023/04/23 01:39:15;;;;;;;2.20;1.63;;;18.70;75.30;;;;;;5023532;28;45185;-72
2023/04/23 01:41:44;;;;;;;1.75;1.63;;;18.70;75.30;;;;;;5023962;28;45162;-72
2023/04/23 01:44:11;;;;;;;2.10;1.40;;;18.70;75.20;;;;;;5023754;28;45202;-72
2023/04/23 01:46:38;;;;;;;1.95;1.70;;;18.70;75.20;;;;;;5023714;28;45457;-72
2023/04/23 01:49:05;;;;;;;1.98;1.60;;;18.70;75.00;;;;;;5023641;28;45302;-72
2023/04/23 01:51:32;;;;;;;2.47;1.70;;;18.70;75.20;;;;;;5023254;28;45264;-72
2023/04/23 01:53:58;;;;;;;2.28;1.63;;;18.70;75.00;;;;;;5023714;28;45224;-72
2023/04/23 01:56:27;;;;;;;1.83;1.45;;;18.70;75.00;;;;;;5023883;28;45431;-72
2023/04/23 01:58:55;;;;;;;1.88;1.40;;;18.70;75.00;;;;;;5023222;28;46413;-72
2023/04/23 02:01:22;;;;;;;2.15;1.58;;;18.70;74.90;;;;;;5023273;28;45663;-72
2023/04/23 02:03:50;;;;;;;2.58;1.73;;;18.70;75.00;;;;;;5023556;28;45203;-72
2023/04/23 02:06:17;;;;;;;2.00;1.80;;;18.70;74.80;;;;;;5023967;28;45113;-72
2023/04/23 02:08:44;;;;;;;1.73;1.55;;;18.70;74.80;;;;;;5023350;28;47528;-72
2023/04/23 02:11:11;;;;;;;1.88;1.40;;;18.70;74.70;;;;;;5023444;28;45234;-72
2023/04/23 02:13:37;;;;;;;3.03;1.63;;;18.60;74.50;;;;;;5023608;28;45217;-72
2023/04/23 02:16:06;;;;;;;3.15;1.80;;;18.70;74.70;;;;;;5023357;28;45403;-72
2023/04/23 02:18:33;;;;;;;2.28;1.88;;;18.70;74.80;;;;;;5023282;28;46987;-72
2023/04/23 02:21:00;;;;;;;1.92;1.60;;;18.70;74.80;;;;;;5023148;28;45082;-72
2023/04/23 02:23:27;;;;;;;1.50;1.30;;;18.70;74.70;;;;;;5025777;28;45311;-71
2023/04/23 02:25:54;;;;;;;2.30;1.80;;;18.70;74.60;;;;;;5022069;28;45371;-72
2023/04/23 02:28:21;;;;;;;2.58;1.80;;;18.70;74.70;;;;;;5022884;28;46495;-72
2023/04/23 02:30:48;;;;;;;2.72;1.83;;;18.70;74.60;;;;;;5023066;28;45137;-72
2023/04/23 02:33:17;;;;;;;2.22;1.80;;;18.70;74.60;;;;;;5023186;28;45069;-72
2023/04/23 02:35:43;;;;;;;2.78;1.73;;;18.70;74.60;;;;;;5023048;28;45297;-72
2023/04/23 02:38:11;;;;;;;2.22;1.77;;;18.70;74.50;;;;;;5023036;28;47368;-72
2023/04/23 02:40:37;;;;;;;2.58;1.95;;;18.70;74.50;;;;;;5022974;28;45244;-72
2023/04/23 02:43:04;;;;;;;2.00;1.73;;;18.70;74.30;;;;;;5023098;28;45082;-72
2023/04/23 02:45:31;;;;;;;2.05;1.77;;;18.70;74.30;;;;;;5023528;28;45585;-72
2023/04/23 02:47:58;;;;;;;2.28;1.80;;;18.70;74.60;;;;;;5022542;28;47953;-72
2023/04/23 02:50:26;;;;;;;2.40;1.80;;;18.70;74.70;;;;;;5022237;28;45374;-72
2023/04/23 02:52:52;;;;;;;2.05;1.80;;;18.60;74.80;;;;;;5022792;28;45156;-72
2023/04/23 02:55:19;;;;;;;2.67;1.83;;;18.60;74.70;;;;;;5022871;28;45143;-72
2023/04/23 02:57:46;;;;;;;2.38;1.80;;;18.60;74.80;;;;;;5022853;28;48431;-72
2023/04/23 03:00:14;;;;;;;2.22;1.83;;;18.60;74.70;;;;;;5022578;28;45231;-72
2023/04/23 03:02:41;;;;;;;2.85;1.95;;;18.60;74.70;;;;;;5022954;28;45191;-72
2023/04/23 03:05:09;;;;;;;2.10;1.90;;;18.60;74.80;;;;;;5022610;28;45419;-72
2023/04/23 03:07:37;;;;;;;2.75;2.10;;;18.60;74.80;;;;;;5022637;28;47742;-72
2023/04/23 03:10:04;;;;;;;2.47;1.98;;;18.60;74.60;;;;;;5022744;28;45236;-72
2023/04/23 03:12:31;;;;;;;2.58;1.88;;;18.60;75.80;;;;;;5022434;28;45193;-72
2023/04/23 03:14:57;;;;;;;2.97;2.20;;;18.60;74.70;;;;;;5025767;28;45552;-71
2023/04/23 03:17:24;;;;;;;2.55;1.90;;;18.60;74.70;;;;;;5022438;28;45149;-72
2023/04/23 03:19:51;;;;;;;2.38;1.63;;;18.60;74.70;;;;;;5022632;28;45254;-72
2023/04/23 03:22:18;;;;;;;2.45;1.98;;;18.60;74.70;;;;;;5022899;28;45153;-72
2023/04/23 03:24:46;;;;;;;2.63;1.90;;;18.60;74.60;;;;;;5022588;28;45193;-72
2023/04/23 03:27:13;;;;;;;2.10;1.73;;;18.60;74.50;;;;;;5022213;28;48120;-72
2023/04/23 03:29:40;;;;;;;1.83;1.60;;;18.60;74.50;;;;;;5022469;28;45124;-72
2023/04/23 03:32:06;;;;;;;2.28;1.88;;;18.60;74.50;;;;;;5022221;28;45421;-72
2023/04/23 03:34:33;;;;;;;2.45;1.92;;;18.60;74.40;;;;;;5022134;28;45460;-72
2023/04/23 03:37:00;;;;;;;3.03;2.17;;;18.60;74.40;;;;;;5024342;28;46601;-72
2023/04/23 03:39:27;;;;;;;2.60;2.00;;;18.60;74.30;;;;;;5025053;28;45161;-72
2023/04/23 03:41:56;;;;;;;2.55;2.17;;;18.60;74.20;;;;;;5025361;28;45192;-72
2023/04/23 03:44:23;;;;;;;2.60;1.80;;;18.60;74.20;;;;;;5025107;28;45194;-72
2023/04/23 03:46:51;;;;;;;2.70;2.17;;;18.60;74.20;;;;;;5024795;28;46833;-72
2023/04/23 03:49:17;;;;;;;2.63;2.22;;;18.60;74.20;;;;;;5025034;28;45869;-72
2023/04/23 03:51:44;;;;;;;3.78;2.30;;;18.60;74.10;;;;;;5025283;28;45154;-72
2023/04/23 03:54:11;;;;;;;2.90;2.33;;;18.60;74.10;;;;;;5025254;28;45555;-72
2023/04/23 03:56:38;;;;;;;3.22;2.20;;;18.60;74.00;;;;;;5024935;28;46613;-72
2023/04/23 03:59:06;;;;;;;3.15;2.10;;;18.60;74.00;;;;;;5024801;28;45226;-72
2023/04/23 04:01:35;;;;;;;2.40;1.95;;;18.60;73.90;;;;;;5025149;28;45289;-72
2023/04/23 04:04:01;;;;;;;2.13;1.85;;;18.60;74.00;;;;;;5025111;28;45104;-72
2023/04/23 04:06:28;;;;;;;2.80;2.20;;;18.60;74.10;;;;;;5027418;28;45146;-71
2023/04/23 04:08:55;;;;;;;2.38;2.10;;;18.60;74.10;;;;;;5024730;28;45353;-72
2023/04/23 04:11:22;;;;;;;2.60;2.00;;;18.60;74.10;;;;;;5025097;28;45265;-72
2023/04/23 04:13:48;;;;;;;1.92;1.65;;;18.60;74.00;;;;;;5025117;28;45279;-72
2023/04/23 04:16:16;;;;;;;3.00;1.90;;;18.60;74.10;;;;;;5024802;28;46401;-72
2023/04/23 04:18:44;;;;;;;2.50;1.98;;;18.60;74.10;;;;;;5024719;28;45364;-72
2023/04/23 04:21:11;;;;;;;2.35;1.95;;;18.60;74.00;;;;;;5024796;28;45243;-72
2023/04/23 04:23:38;;;;;;;2.65;1.90;;;18.60;74.00;;;;;;5025057;28;45121;-72
2023/04/23 04:26:06;;;;;;;2.00;1.75;;;18.60;74.00;;;;;;5024389;28;45745;-72
2023/04/23 04:28:35;;;;;;;2.47;2.10;;;18.60;73.90;;;;;;5024741;28;45462;-72
2023/04/23 04:31:02;;;;;;;2.88;2.10;;;18.60;73.90;;;;;;5024684;28;45290;-72
2023/04/23 04:33:30;;;;;;;4.38;2.15;;;18.60;73.90;;;;;;5024626;28;45083;-72
2023/04/23 04:35:58;;;;;;;2.75;2.28;;;18.60;73.80;;;;;;5024274;28;46386;-72
2023/04/23 04:38:25;;;;;;;2.90;2.08;;;18.60;73.80;;;;;;5024389;28;45882;-72
2023/04/23 04:40:54;;;;;;;2.63;2.05;;;18.60;73.80;;;;;;5024642;28;45209;-72
2023/04/23 04:43:21;;;;;;;2.65;2.28;;;18.60;73.70;;;;;;5024750;28;45060;-72
2023/04/23 04:45:48;;;;;;;2.58;2.28;;;18.60;73.60;;;;;;5024512;28;45482;-72
2023/04/23 04:48:14;;;;;;;2.20;2.00;;;18.60;73.60;;;;;;5023527;28;45369;-72
2023/04/23 04:50:43;;;;;;;3.13;2.15;;;18.60;73.60;;;;;;5024323;28;45202;-72
2023/04/23 04:53:09;;;;;;;2.78;2.10;;;18.60;73.60;;;;;;5024388;28;45074;-72
2023/04/23 04:55:36;;;;;;;2.58;2.15;;;18.60;73.70;;;;;;5027365;28;48307;-71
2023/04/23 04:58:03;;;;;;;2.53;2.10;;;18.60;73.70;;;;;;5024223;28;45382;-72
2023/04/23 05:00:31;;;;;;;3.10;2.17;;;18.60;73.80;;;;;;5024593;28;45298;-71
2023/04/23 05:02:58;;;;;;;2.88;2.30;;;18.60;73.80;;;;;;5024273;28;45582;-72
2023/04/23 05:05:26;;;;;;;3.00;2.10;;;18.60;73.80;;;;;;5024344;28;47244;-72
2023/04/23 05:07:57;;;;;;;2.22;2.03;;;18.60;73.80;;;;;;5024065;28;45395;-72
2023/04/23 05:10:24;;;;;;;2.00;1.80;;;18.60;73.80;;;;;;5024563;28;45278;-72
2023/04/23 05:12:51;;;;;;;2.38;1.88;;;18.60;73.80;;;;;;5024273;28;45560;-72
2023/04/23 05:15:18;;;;;;;3.35;2.33;;;18.60;73.80;;;;;;5024366;28;45210;-72
2023/04/23 05:17:45;;;;;;;2.53;1.90;;;18.60;73.80;;;;;;5023973;28;45436;-72
2023/04/23 05:20:13;;;;;;;2.28;1.92;;;18.70;73.80;;;;;;5024093;28;45239;-72
2023/04/23 05:22:41;;;;;;;2.33;1.83;;;18.70;73.80;;;;;;5024337;28;45219;-72
2023/04/23 05:25:11;;;;;;;3.08;2.13;;;18.70;73.70;;;;;;5024109;28;48696;-71
2023/04/23 05:27:38;;;;;;;1.92;1.73;;;18.60;73.60;;;;;;5023769;28;45248;-72
2023/04/23 05:30:08;;;;;;;2.25;1.85;;;18.70;73.70;;;;;;5023791;28;45125;-72
2023/04/23 05:32:35;;;;;;;2.33;1.77;;;18.70;73.70;;;;;;5024136;28;45232;-72
2023/04/23 05:35:02;;;;;;;3.00;2.35;;;18.70;73.70;;;;;;5023662;28;46612;-72
2023/04/23 05:37:29;;;;;;;2.42;1.80;;;18.70;73.70;;;;;;5023986;28;45116;-72
2023/04/23 05:39:57;;;;;;;3.58;2.30;;;18.60;73.60;;;;;;5024071;28;45302;-72
2023/04/23 05:42:25;;;;;;;2.63;2.05;;;18.70;73.70;;;;;;5024258;28;45127;-72
2023/04/23 05:44:51;;;;;;;2.72;2.00;;;18.70;73.60;;;;;;5023700;28;46368;-72
2023/04/23 05:47:18;;;;;;;3.63;2.00;;;18.70;73.60;;;;;;5026455;28;45298;-71
2023/04/23 05:49:45;;;;;;;2.35;1.85;;;18.70;73.70;;;;;;5023108;28;45232;-72
2023/04/23 05:52:12;;;;;;;2.20;1.90;;;18.70;73.80;;;;;;5020939;28;45113;-71
2023/04/23 05:54:39;;;;;;;2.20;1.60;;;18.70;73.80;;;;;;5023915;28;47010;-72
2023/04/23 05:57:06;;;;;;;2.08;1.80;;;18.70;73.80;;;;;;5023498;28;45342;-72
2023/04/23 05:59:34;;;;;;;2.00;1.60;;;18.70;73.70;;;;;;5023158;28;45318;-72
2023/04/23 06:02:01;;;;;;;2.10;1.55;;;18.70;73.70;;;;;;5023468;28;45431;-71
2023/04/23 06:04:27;;;;;;;1.83;1.60;;;18.70;73.70;;;;;;5023623;28;47530;-72
2023/04/23 06:06:54;;;;;;;1.67;1.40;;;18.70;73.70;;;;;;5023391;28;45333;-72
2023/04/23 06:09:21;;;;;;;2.13;1.58;;;18.70;73.70;;;;;;5023375;28;45367;-71
2023/04/23 06:11:49;;;;;;;2.08;1.75;;;18.70;73.70;;;;;;5023681;28;45376;-72
2023/04/23 06:14:16;;;;;;;2.30;1.80;;;18.70;73.60;;;;;;5023123;28;46323;-72
2023/04/23 06:16:44;;;;;;;2.00;1.70;;;18.70;73.60;;;;;;5023496;28;46166;-72
2023/04/23 06:19:11;;;;;;;1.73;1.58;;;18.70;73.80;;;;;;5023171;28;45311;-72
2023/04/23 06:21:38;;;;;;;2.83;1.90;;;18.70;73.80;;;;;;5023608;28;45477;-72
2023/04/23 06:24:06;;;;;;;2.17;1.52;;;18.70;73.70;;;;;;5023386;28;46458;-72
2023/04/23 06:26:33;;;;;;;1.75;1.48;;;18.70;73.90;;;;;;5023108;28;45132;-72
2023/04/23 06:28:59;;;;;;;2.25;1.60;;;18.60;73.90;;;;;;5023190;28;45190;-72
2023/04/23 06:31:26;;;;;;;2.03;1.50;;;18.60;74.00;;;;;;5023734;28;45175;-72
2023/04/23 06:33:54;;;;;;;2.53;1.70;;;18.60;74.00;;;;;;5023192;28;47498;-72
2023/04/23 06:36:21;;;;;;;1.90;1.67;;;18.60;74.10;;;;;;5023139;28;45286;-72
2023/04/23 06:38:48;;;;;;;3.45;1.70;;;18.60;74.10;;;;;;5026362;28;45259;-71
2023/04/23 06:41:15;;;;;;;2.13;1.70;;;18.60;74.20;;;;;;5023085;28;45210;-72
2023/04/23 06:43:42;;;;;;;1.80;1.40;;;18.60;74.20;;;;;;5023074;28;47789;-72
2023/04/23 06:46:09;;;;;;;1.92;1.52;;;18.70;74.30;;;;;;5022993;28;45319;-72
2023/04/23 06:48:36;;;;;;;2.03;1.50;;;18.70;74.20;;;;;;5022840;28;45147;-72
2023/04/23 06:51:05;;;;;;;1.20;1.10;;;18.70;74.20;;;;;;5022876;28;45567;-72
2023/04/23 06:53:32;;;;;;;1.77;1.42;;;18.70;74.20;;;;;;5022504;28;47688;-73
2023/04/23 06:55:58;;;;;;;2.30;1.48;;;18.70;74.20;;;;;;5022547;28;45178;-72
2023/04/23 06:58:30;;;;;;;3.08;1.25;;;18.70;74.30;;;;;;5023266;28;45192;-72
2023/04/23 07:00:58;;;;;;;1.92;1.33;;;18.70;74.30;;;;;;5023010;28;45439;-72
2023/04/23 07:03:26;;;;;;;1.33;1.23;;;18.70;74.50;;;;;;5022359;28;47981;-72
2023/04/23 07:05:52;;;;;;;1.77;1.40;;;18.70;74.50;;;;;;5022674;28;45126;-72
2023/04/23 07:08:21;;;;;;;2.10;1.52;;;18.70;74.60;;;;;;5022707;28;45128;-72
2023/04/23 07:10:48;;;;;;;1.40;1.30;;;18.60;75.00;;;;;;5023368;28;45413;-72
2023/04/23 07:13:15;;;;;;;2.40;1.40;;;18.60;74.50;;;;;;5025266;28;48302;-72
2023/04/23 07:15:42;;;;;;;1.95;1.60;;;18.60;74.60;;;;;;5025665;28;45118;-73
2023/04/23 07:18:09;;;;;;;2.05;1.80;;;18.60;74.70;;;;;;5025514;28;45320;-72
2023/04/23 07:20:36;;;;;;;1.98;1.60;;;18.60;74.70;;;;;;5025572;28;45583;-72
2023/04/23 07:23:03;;;;;;;1.55;1.30;;;18.60;74.70;;;;;;5025269;28;46330;-72
2023/04/23 07:25:31;;;;;;;1.48;1.20;;;18.60;74.80;;;;;;5025337;28;45144;-73
2023/04/23 07:27:58;;;;;;;2.28;1.50;;;18.60;74.90;;;;;;5027358;28;45155;-71
2023/04/23 07:30:26;;;;;;;2.15;1.20;;;18.70;75.10;;;;;;5026641;28;45180;-72
2023/04/23 07:32:54;;;;;;;2.03;1.38;;;18.70;75.10;;;;;;5025466;28;47951;-67
2023/04/23 07:35:21;;;;;;;2.00;1.45;;;18.70;75.10;;;;;;5045029;28;45673;-71
2023/04/23 07:37:52;;;;;;;2.08;1.50;;;18.70;74.70;;;;;;5045128;28;45095;-72
2023/04/23 07:40:20;;;;;;;2.13;1.25;;;18.70;74.30;;;;;;5045410;28;45164;-71
2023/04/23 07:42:48;;;;;;;2.15;1.30;;;18.80;74.00;;;;;;5045111;28;45407;-72
2023/04/23 07:45:15;;;;;;;2.58;1.40;;;18.80;73.80;;;;;;5045006;28;45164;-71
2023/04/23 07:47:42;;;;;;;1.63;1.20;;;18.80;73.70;;;;;;5045320;28;45148;-71
2023/04/23 07:50:09;;;;;;;1.63;1.23;;;18.80;73.60;;;;;;5044855;28;45271;-71
2023/04/23 07:52:36;;;;;;;1.30;1.20;;;18.80;73.50;;;;;;5045189;28;47523;-71
2023/04/23 07:55:03;;;;;;;1.48;1.08;;;18.80;73.50;;;;;;5045233;28;45134;-72
2023/04/23 07:57:30;;;;;;;1.50;1.33;;;18.80;73.40;;;;;;5044911;28;45203;-71
2023/04/23 07:59:58;;;;;;;2.25;1.08;;;18.80;73.40;;;;;;5045392;28;45352;-71
2023/04/23 08:02:25;;;;;;;1.30;1.02;;;18.80;73.50;;;;;;5045089;28;46613;-72
2023/04/23 08:04:52;;;;;;;1.70;1.10;;;18.80;73.50;;;;;;5044855;28;45174;-71
2023/04/23 08:07:19;;;;;;;1.15;1.00;;;18.80;73.60;;;;;;5045055;28;45120;-71
2023/04/23 08:09:46;;;;;;;1.45;0.88;;;18.80;73.60;;;;;;5044821;28;45210;-71
2023/04/23 08:12:12;;;;;;;1.00;0.90;;;18.80;73.70;;;;;;5044473;28;46259;-71
2023/04/23 08:14:39;;;;;;;1.27;0.93;;;18.80;73.60;;;;;;5044867;28;45304;-71
2023/04/23 08:17:07;;;;;;;2.47;0.95;;;18.80;73.60;;;;;;5045100;28;45169;-71
2023/04/23 08:19:34;;;;;;;1.15;0.80;;;18.80;73.70;;;;;;5047977;28;45542;-71
2023/04/23 08:22:01;;;;;;;1.23;0.98;;;18.80;73.70;;;;;;5044536;28;45456;-71
2023/04/23 08:24:28;;;;;;;1.85;1.00;;;18.80;73.70;;;;;;5044745;28;45247;-73
2023/04/23 08:26:55;;;;;;;1.25;1.10;;;18.80;73.70;;;;;;5045101;28;45375;-72
2023/04/23 08:29:22;;;;;;;1.42;0.90;;;18.80;73.70;;;;;;5044557;28;45164;-72
2023/04/23 08:31:49;;;;;;;1.33;0.90;;;18.80;73.60;;;;;;5044573;28;45251;-72
2023/04/23 08:34:17;;;;;;;1.92;1.17;;;18.90;73.50;;;;;;5044902;28;45199;-72
2023/04/23 08:36:45;;;;;;;1.55;1.10;;;18.80;73.40;;;;;;5046143;28;45312;-72
2023/04/23 08:39:12;;;;;;;1.02;0.93;;;18.90;73.90;;;;;;5044915;28;45293;-73
2023/04/23 08:41:41;;;;;;;1.02;0.80;;;18.90;74.20;;;;;;5044437;28;45234;-72
2023/04/23 08:44:13;;;;;;;1.50;0.90;;;18.90;73.90;;;;;;5043701;27;45412;-67
2023/04/23 08:46:43;;;;;;;8.85;1.58;;;18.90;73.40;;;;;;5044961;28;45065;-71
2023/04/23 08:49:14;;;;;;;6.35;1.05;;;18.90;73.50;;;;;;5044703;27;45351;-71
2023/04/23 08:51:46;;;;;;;2.95;0.98;;;18.90;73.10;;;;;;5043800;28;46913;-71
2023/04/23 08:54:19;;;;;;;1.58;0.80;;;18.80;73.00;;;;;;5044145;28;45288;-71
2023/04/23 08:56:46;;;;;;;1.77;0.95;;;18.80;72.90;;;;;;5044576;28;45199;-71
2023/04/23 08:59:14;;;;;;;4.15;0.93;;;18.80;72.80;;;;;;5044716;28;45212;-71
2023/04/23 09:01:41;;;;;;;2.88;1.08;;;18.80;72.80;;;;;;5043979;28;48731;-71
2023/04/23 09:04:09;;;;;;;0.98;0.88;;;18.80;72.70;;;;;;5044156;28;45165;-71
2023/04/23 09:06:36;;;;;;;2.22;1.00;;;18.80;72.60;;;;;;5043967;28;45188;-70
2023/04/23 09:09:06;;;;;;;3.33;1.30;;;18.90;72.50;;;;;;5044294;27;45159;-70
2023/04/23 09:11:34;;;;;;;3.63;0.90;;;18.80;72.40;;;;;;5152284;27;47413;-71
2023/04/23 09:14:00;;;;;;;2.88;0.90;;;18.90;72.10;;;;;;5149538;27;45176;-71
2023/04/23 09:16:27;;;;;;;1.58;1.00;;;18.90;72.40;;;;;;5149397;27;45270;-71
2023/04/23 09:18:54;;;;;;;2.10;1.00;;;18.90;72.70;;;;;;5149635;27;45254;-71
2023/04/23 09:21:21;;;;;;;1.63;0.90;;;18.90;73.00;;;;;;5149191;27;46609;-71
2023/04/23 09:23:51;;;;;;;1.02;0.70;;;18.90;73.00;;;;;;5149095;27;45268;-71
2023/04/23 09:26:21;;;;;;;1.27;0.80;;;18.90;73.10;;;;;;5149353;27;45215;-70
2023/04/23 09:28:50;;;;;;;3.33;0.70;;;19.00;73.20;;;;;;5091167;27;45613;-71
2023/04/23 09:31:21;;;;;;;2.15;0.73;;;19.00;73.20;;;;;;5043577;28;48483;-71
2023/04/23 09:33:52;;;;;;;1.58;0.68;;;19.00;73.30;;;;;;5043705;28;45451;-71
2023/04/23 09:36:22;;;;;;;1.27;0.98;;;19.00;73.10;;;;;;5044429;28;45207;-70
2023/04/23 09:38:49;;;;;;;0.70;0.70;;;19.00;73.30;;;;;;5044083;28;45664;-70
2023/04/23 09:41:25;;;;;;;1.30;0.90;;;19.00;73.40;;;;;;5043524;28;46605;-70
2023/04/23 09:43:53;;;;;;;1.30;0.80;;;19.00;73.40;;;;;;5043885;28;45133;-70
2023/04/23 09:46:33;;;;;;;2.03;0.70;;;19.00;73.50;;;;;;5044103;28;45199;-71
2023/04/23 09:49:04;;;;;;;1.33;0.90;;;18.90;73.50;;;;;;5043634;28;45179;-71
2023/04/23 09:51:32;;;;;;;0.93;0.73;;;18.90;73.50;;;;;;5043068;28;47390;-71
2023/04/23 09:54:01;;;;;;;0.75;0.50;;;18.90;73.60;;;;;;5043022;28;45304;-71
2023/04/23 09:56:30;;;;;;;1.42;0.90;;;18.90;73.60;;;;;;5043396;28;45330;-71
2023/04/23 09:58:56;;;;;;;2.70;0.90;;;18.90;73.70;;;;;;5043505;28;45250;-71
2023/04/23 10:01:29;;;;;;;2.22;0.88;;;18.90;73.80;;;;;;5046296;28;47101;-70
2023/04/23 10:03:56;;;;;;;1.30;0.75;;;18.90;73.80;;;;;;5043667;28;45189;-71
2023/04/23 10:06:30;;;;;;;1.00;0.70;;;18.90;74.00;;;;;;5043553;28;45214;-71
2023/04/23 10:08:57;;;;;;;0.75;0.70;;;18.90;74.00;;;;;;5043650;28;45177;-71
2023/04/23 10:11:25;;;;;;;2.10;0.70;;;18.90;74.10;;;;;;5042909;28;46256;-71
2023/04/23 10:13:55;;;;;;;0.90;0.73;;;18.90;74.10;;;;;;5043319;28;45329;-71
2023/04/23 10:16:23;;;;;;;0.90;0.70;;;18.90;74.10;;;;;;5043585;28;45199;-71
2023/04/23 10:18:51;;;;;;;1.35;0.70;;;18.90;74.30;;;;;;5043470;28;45352;-71
2023/04/23 10:21:20;;;;;;;1.60;0.60;;;18.90;74.30;;;;;;5043109;28;46770;-71
2023/04/23 10:23:48;;;;;;;2.35;0.88;;;18.90;74.20;;;;;;5043173;28;45243;-71
2023/04/23 10:26:16;;;;;;;1.50;0.70;;;18.90;74.30;;;;;;5040115;28;45274;-68
2023/04/23 10:28:46;;;;;;;4.22;1.00;;;18.90;74.50;;;;;;5060064;27;45441;-67
2023/04/23 10:31:15;;;;;;;4.63;0.95;;;18.90;75.90;;;;;;5036121;28;46067;-69
2023/04/23 10:33:43;;;;;;;6.22;1.30;;;19.00;77.40;;;;;;5044146;27;45335;-71
2023/04/23 10:36:11;;;;;;;9.48;1.42;;;19.00;78.00;;;;;;5043208;28;45234;-71
2023/04/23 10:38:40;;;;;;;4.28;1.25;;;19.00;78.00;;;;;;5042740;28;45574;-71
2023/04/23 10:41:08;;;;;;;2.60;1.05;;;18.90;77.50;;;;;;5042928;28;45512;-71
2023/04/23 10:43:36;;;;;;;3.55;0.95;;;18.90;77.80;;;;;;5042967;28;45062;-71
2023/04/23 10:46:02;;;;;;;4.28;1.13;;;18.90;78.00;;;;;;5043861;28;45418;-71
2023/04/23 10:49:05;;;;;;;1.95;0.90;;;18.90;78.30;;;;;;5046762;28;45191;-71
2023/04/23 10:51:35;;;;;;;5.25;0.93;;;18.80;78.50;;;;;;5045199;28;46282;-70
2023/04/23 10:54:03;;;;;;;4.57;0.68;;;18.80;78.70;;;;;;5047766;28;45217;-71
2023/04/23 10:56:31;;;;;;;3.63;0.70;;;18.80;78.90;;;;;;5045660;28;45232;-71
2023/04/23 10:58:58;;;;;;;5.30;1.13;;;18.80;79.00;;;;;;5045789;28;45243;-71
2023/04/23 11:01:27;;;;;;;3.28;0.88;;;18.80;79.40;;;;;;5045675;28;46318;-71
2023/04/23 11:03:56;;;;;;;3.72;1.00;;;18.80;79.30;;;;;;5045450;28;45936;-71
2023/04/23 11:06:54;;;;;;;2.60;0.85;;;18.80;79.60;;;;;;5045802;28;45208;-71
2023/04/23 11:09:32;;;;;;;1.77;0.80;;;18.80;79.60;;;;;;5043034;28;45206;-71
2023/04/23 11:12:00;;;;;;;1.45;0.60;;;18.80;79.70;;;;;;5045605;28;48014;-71
2023/04/23 11:14:51;;;;;;;2.33;0.90;;;18.80;80.00;;;;;;5045339;28;45278;-71
2023/04/23 11:17:22;;;;;;;1.85;0.77;;;18.80;80.20;;;;;;5035602;28;45128;-71
2023/04/23 11:20:12;;;;;;;3.38;1.00;;;18.80;80.50;;;;;;5045457;28;45165;-71
2023/04/23 11:22:41;;;;;;;2.08;0.70;;;18.80;80.70;;;;;;5045609;28;47545;-71
2023/04/23 11:25:10;;;;;;;1.45;0.98;;;18.90;80.80;;;;;;5045331;28;45249;-71
2023/04/23 11:27:40;;;;;;;1.50;0.70;;;18.90;80.90;;;;;;5045433;28;45245;-70
2023/04/23 11:30:11;;;;;;;1.33;0.88;;;18.80;81.00;;;;;;5045463;28;45135;-71
2023/04/23 11:32:39;;;;;;;1.48;0.77;;;18.90;81.10;;;;;;5042499;28;45266;-71
2023/04/23 11:35:08;;;;;;;1.60;0.77;;;18.90;81.20;;;;;;5045132;28;45170;-71
2023/04/23 11:37:39;;;;;;;1.30;0.60;;;18.80;81.10;;;;;;5045726;28;45340;-71
2023/04/23 11:40:09;;;;;;;1.23;0.85;;;18.80;81.30;;;;;;5045394;28;45131;-71
2023/04/23 11:42:42;;;;;;;2.03;0.70;;;18.90;81.40;;;;;;5048033;28;46397;-70
2023/04/23 11:45:16;;;;;;;1.08;0.52;;;18.90;81.40;;;;;;5045269;28;46046;-71
2023/04/23 11:47:44;;;;;;;0.70;0.50;;;18.90;81.20;;;;;;5045458;28;45238;-71
2023/04/23 11:50:16;;;;;;;0.82;0.60;;;18.90;81.40;;;;;;5044485;28;45222;-71
2023/04/23 11:52:45;;;;;;;2.83;0.63;;;18.90;81.40;;;;;;5044878;28;47913;-71
2023/04/23 11:55:12;;;;;;;0.73;0.50;;;18.80;81.40;;;;;;5045180;28;45408;-71
2023/04/23 11:57:42;;;;;;;1.45;0.70;;;18.80;81.30;;;;;;5044647;28;45097;-71
2023/04/23 12:00:15;;;;;;;1.13;0.52;;;18.80;81.40;;;;;;5045350;28;45426;-71
2023/04/23 12:02:53;;;;;;;0.90;0.50;;;18.80;81.40;;;;;;5044715;28;46593;-71
2023/04/23 12:05:21;;;;;;;2.15;0.52;;;18.80;81.60;;;;;;5044964;28;45247;-71
2023/04/23 12:07:50;;;;;;;1.92;0.65;;;18.80;81.90;;;;;;5045047;28;45230;-71
2023/04/23 12:10:18;;;;;;;0.80;0.52;;;18.80;82.40;;;;;;5045058;28;45127;-71
2023/04/23 12:12:50;;;;;;;1.02;0.50;;;18.80;82.40;;;;;;5044806;28;45689;-71
2023/04/23 12:15:17;;;;;;;1.25;0.60;;;18.90;82.60;;;;;;5044739;28;45134;-71
2023/04/23 12:17:49;;;;;;;1.88;0.50;;;18.80;82.70;;;;;;5045009;28;45214;-71
2023/04/23 12:20:18;;;;;;;0.60;0.40;;;18.90;82.80;;;;;;5045069;28;45108;-71
2023/04/23 12:22:45;;;;;;;2.47;0.52;;;18.80;82.80;;;;;;5044747;28;47341;-71
2023/04/23 12:25:14;;;;;;;0.45;0.40;;;18.80;82.70;;;;;;5045020;28;45502;-71
2023/04/23 12:27:44;;;;;;;0.35;0.30;;;18.90;82.90;;;;;;5044909;28;45212;-71
2023/04/23 12:30:11;;;;;;;4.05;0.73;;;18.80;82.90;;;;;;5044850;28;45290;-71
2023/04/23 12:32:38;;;;;;;0.40;0.40;;;18.80;83.20;;;;;;5044644;28;45485;-71
2023/04/23 12:35:07;;;;;;;0.80;0.40;;;18.90;83.30;;;;;;5047436;28;45251;-71
2023/04/23 12:37:37;;;;;;;0.50;0.40;;;18.90;82.80;;;;;;5044633;28;45235;-71
2023/04/23 12:40:06;;;;;;;3.10;0.60;;;18.80;83.10;;;;;;5044809;28;45147;-71
2023/04/23 12:42:35;;;;;;;0.90;0.60;;;18.80;82.90;;;;;;5044267;28;46569;-71
2023/04/23 12:45:09;;;;;;;1.20;0.57;;;18.80;82.70;;;;;;5044278;28;45210;-72
2023/04/23 12:47:36;;;;;;;1.38;0.50;;;18.80;82.80;;;;;;5044453;28;45421;-71
2023/04/23 12:50:04;;;;;;;0.50;0.50;;;18.80;82.60;;;;;;5044067;28;45607;-71
2023/04/23 12:52:31;;;;;;;1.00;0.40;;;18.80;82.70;;;;;;5044440;28;46997;-71